createdAt,value
2023-04-21T00:02:21.801Z,7.82
2023-04-21T00:05:44.952Z,7.81
2023-04-21T00:12:11.921Z,7.76
2023-04-21T00:14:58.050Z,7.76
2023-04-21T00:17:35.422Z,7.79
2023-04-21T00:20:14.933Z,7.79
2023-04-21T00:22:52.014Z,7.80
2023-04-21T00:25:28.606Z,7.79
2023-04-21T00:28:11.070Z,7.77
2023-04-21T00:30:56.450Z,7.77
2023-04-21T00:33:40.895Z,7.76
2023-04-21T00:36:19.606Z,7.78
2023-04-21T00:39:19.254Z,7.79
2023-04-21T00:42:03.548Z,7.78
2023-04-21T00:45:10.003Z,7.76
2023-04-21T00:48:16.451Z,7.73
2023-04-21T00:51:13.854Z,7.65
2023-04-21T00:54:02.428Z,7.61
2023-04-21T00:57:12.587Z,7.61
2023-04-21T01:00:18.026Z,7.61
2023-04-21T01:03:42.201Z,7.60
2023-04-21T01:06:25.219Z,7.59
2023-04-21T01:09:09.515Z,7.58
2023-04-21T01:11:44.116Z,7.58
2023-04-21T01:14:26.905Z,7.57
2023-04-21T01:17:32.182Z,7.58
2023-04-21T01:20:22.982Z,7.60
2023-04-21T01:23:34.209Z,7.61
2023-04-21T01:26:15.288Z,7.62
2023-04-21T01:29:11.166Z,7.63
2023-04-21T01:32:11.758Z,7.62
2023-04-21T01:34:56.225Z,7.64
2023-04-21T01:38:04.948Z,7.65
2023-04-21T01:40:46.644Z,7.62
2023-04-21T01:43:55.724Z,7.59
2023-04-21T01:46:37.681Z,7.58
2023-04-21T01:49:19.429Z,7.53
2023-04-21T01:51:56.134Z,7.56
2023-04-21T01:54:54.610Z,7.57
2023-04-21T01:57:33.392Z,7.55
2023-04-21T02:00:15.352Z,7.46
2023-04-21T02:03:46.493Z,7.52
2023-04-21T02:06:34.936Z,7.51
2023-04-21T02:09:15.213Z,7.50
2023-04-21T02:12:39.302Z,7.52
2023-04-21T02:15:22.451Z,7.54
2023-04-21T02:18:16.937Z,7.53
2023-04-21T02:21:41.303Z,7.54
2023-04-21T02:24:19.974Z,7.56
2023-04-21T02:26:51.306Z,7.55
2023-04-21T02:29:30.618Z,7.56
2023-04-21T02:32:24.440Z,7.54
2023-04-21T02:35:26.252Z,7.53
2023-04-21T02:38:09.085Z,7.53
2023-04-21T02:40:44.726Z,7.54
2023-04-21T02:43:19.283Z,7.53
2023-04-21T02:46:13.678Z,7.51
2023-04-21T02:49:08.384Z,7.53
2023-04-21T02:51:55.742Z,7.56
2023-04-21T02:54:42.645Z,7.57
2023-04-21T02:57:17.693Z,7.57
2023-04-21T02:59:56.111Z,7.57
2023-04-21T03:03:05.705Z,7.60
2023-04-21T03:05:46.760Z,7.63
2023-04-21T03:09:04.222Z,7.63
2023-04-21T03:11:50.807Z,7.65
2023-04-21T03:14:31.325Z,7.63
2023-04-21T03:27:03.505Z,7.64
2023-04-21T03:29:32.993Z,7.64
2023-04-21T03:34:54.733Z,7.65
2023-04-21T03:37:24.443Z,7.68
2023-04-21T03:39:53.425Z,7.68
2023-04-21T03:42:22.078Z,7.68
2023-04-21T03:44:51.683Z,7.66
2023-04-21T03:47:20.720Z,7.65
2023-04-21T03:49:49.608Z,7.63
2023-04-21T03:52:18.341Z,7.61
2023-04-21T03:54:48.713Z,7.62
2023-04-21T03:57:17.361Z,7.62
2023-04-21T03:59:47.786Z,7.65
2023-04-21T04:02:17.383Z,7.68
2023-04-21T04:04:51.826Z,7.70
2023-04-21T04:07:20.652Z,7.72
2023-04-21T04:09:51.664Z,7.74
2023-04-21T04:12:28.555Z,7.73
2023-04-21T04:16:04.119Z,7.73
2023-04-21T04:18:57.127Z,7.72
2023-04-21T04:21:40.314Z,7.71
2023-04-21T04:24:52.289Z,7.72
2023-04-21T04:28:22.533Z,7.73
2023-04-21T04:35:14.916Z,7.77
2023-04-21T04:38:18.669Z,7.79
2023-04-21T04:41:14.915Z,7.81
2023-04-21T04:44:03.495Z,7.86
2023-04-21T04:47:17.352Z,7.91
2023-04-21T04:54:00.656Z,8.01
2023-04-21T05:06:07.663Z,8.00
2023-04-21T05:09:30.198Z,8.03
2023-04-21T05:19:47.006Z,8.20
2023-04-21T05:26:37.501Z,8.27
2023-04-21T05:34:14.560Z,8.29
2023-04-21T05:37:34.418Z,8.25
2023-04-21T05:40:55.250Z,8.28
2023-04-21T05:44:02.727Z,8.31
2023-04-21T05:48:08.320Z,8.29
2023-04-21T05:51:40.733Z,8.30
2023-04-21T05:55:47.950Z,8.30
2023-04-21T05:58:43.704Z,8.31
2023-04-21T06:01:57.018Z,8.31
2023-04-21T06:04:42.475Z,8.28
2023-04-21T06:13:06.948Z,8.25
2023-04-21T06:16:18.579Z,8.25
2023-04-21T06:19:40.831Z,8.25
2023-04-21T06:23:26.799Z,8.26
2023-04-21T06:26:22.010Z,8.30
2023-04-21T06:38:54.508Z,8.28
2023-04-21T06:46:07.260Z,8.21
2023-04-21T06:49:24.316Z,8.19
2023-04-21T07:02:15.233Z,8.14
2023-04-21T07:06:17.351Z,8.17
2023-04-21T07:10:00.930Z,8.20
2023-04-21T07:52:43.520Z,8.41
2023-04-21T08:00:12.221Z,8.40
2023-04-21T08:02:47.654Z,8.52
2023-04-21T08:11:33.029Z,8.59
2023-04-21T08:53:23.506Z,8.88
2023-04-21T08:57:36.623Z,8.94
2023-04-21T09:00:47.043Z,8.98
2023-04-21T09:14:11.922Z,9.03
2023-04-21T09:34:54.011Z,9.21
2023-04-21T10:34:29.404Z,9.41
2023-04-21T11:00:52.512Z,9.31
2023-04-21T12:27:40.954Z,9.89
2023-04-21T12:59:50.330Z,9.84
2023-04-21T13:48:29.359Z,9.84
2023-04-21T14:01:16.079Z,9.91
2023-04-21T14:05:17.111Z,9.95
2023-04-21T14:08:15.229Z,9.92
2023-04-21T14:43:35.031Z,9.88
2023-04-21T14:47:10.316Z,9.86
2023-04-21T14:54:10.607Z,9.88
2023-04-21T14:57:17.523Z,9.87
2023-04-21T15:01:30.397Z,9.89
2023-04-21T15:36:27.692Z,9.76
2023-04-21T15:39:06.762Z,9.77
2023-04-21T15:42:45.241Z,9.79
2023-04-21T15:46:36.503Z,9.83
2023-04-21T15:54:39.981Z,9.86
2023-04-21T16:22:18.571Z,9.69
2023-04-21T16:37:26.712Z,9.72
2023-04-21T16:40:22.114Z,9.72
2023-04-21T16:43:27.129Z,9.74
2023-04-21T16:51:42.074Z,9.82
2023-04-21T16:54:40.803Z,9.83
2023-04-21T16:57:32.399Z,9.84
2023-04-21T17:01:00.180Z,9.84
2023-04-21T17:04:03.750Z,9.84
2023-04-21T17:07:31.952Z,9.83
2023-04-21T17:10:23.533Z,9.85
2023-04-21T17:13:12.820Z,9.86
2023-04-21T17:15:56.788Z,9.87
2023-04-21T17:24:04.539Z,9.85
2023-04-21T17:27:21.785Z,9.83
2023-04-21T17:37:50.908Z,9.75
2023-04-21T17:41:28.394Z,9.71
2023-04-21T17:48:58.323Z,9.65
2023-04-21T17:57:19.145Z,9.55
2023-04-21T18:05:30.946Z,9.41
2023-04-21T18:12:57.475Z,9.39
2023-04-21T18:29:58.866Z,9.26
2023-04-21T18:38:33.571Z,9.32
2023-04-21T18:41:34.426Z,9.31
2023-04-21T18:44:27.064Z,9.33
2023-04-21T18:48:20.694Z,9.31
2023-04-21T18:52:12.852Z,9.32
2023-04-21T18:55:58.826Z,9.33
2023-04-21T18:58:53.265Z,9.34
2023-04-21T19:06:57.812Z,9.40
2023-04-21T19:10:59.123Z,9.40
2023-04-21T19:14:46.074Z,9.38
2023-04-21T19:18:05.607Z,9.39
2023-04-21T19:21:15.371Z,9.38
2023-04-21T19:24:12.137Z,9.40
2023-04-21T19:39:49.375Z,9.43
2023-04-21T19:43:30.660Z,9.42
2023-04-21T19:51:52.086Z,9.48
2023-04-21T19:54:56.811Z,9.50
2023-04-21T19:58:40.391Z,9.52
2023-04-21T20:02:50.817Z,9.54
2023-04-21T20:06:09.086Z,9.62
2023-04-21T20:09:48.789Z,9.67
2023-04-21T20:12:31.286Z,9.74
2023-04-21T20:18:48.910Z,9.73
2023-04-21T20:21:46.870Z,9.90
2023-04-21T20:24:37.080Z,9.81
2023-04-21T20:27:26.269Z,9.92
2023-04-21T20:30:40.837Z,9.93
2023-04-21T20:33:50.213Z,9.92
2023-04-21T20:36:36.784Z,9.90
2023-04-21T20:40:29.962Z,9.90
2023-04-21T20:47:43.588Z,9.92
2023-04-21T20:50:45.726Z,9.92
2023-04-21T20:54:39.652Z,9.90
2023-04-21T20:57:30.098Z,9.92
2023-04-21T21:00:28.308Z,9.80
2023-04-21T21:03:48.178Z,9.89
2023-04-21T21:06:45.647Z,9.89
2023-04-21T21:09:24.696Z,9.90
2023-04-21T21:12:31.325Z,9.89
2023-04-21T21:15:38.576Z,9.89
2023-04-21T21:19:35.100Z,9.90
2023-04-21T21:22:19.498Z,9.92
2023-04-21T21:29:55.890Z,9.95
2023-04-21T21:32:50.844Z,9.94
2023-04-21T21:36:16.616Z,9.95
2023-04-21T21:43:25.401Z,9.93
2023-04-21T21:46:22.462Z,9.91
2023-04-21T21:49:34.875Z,9.92
2023-04-21T22:01:28.529Z,9.96
2023-04-21T22:04:19.208Z,9.94
2023-04-21T22:07:16.139Z,9.94
2023-04-21T22:11:16.796Z,9.94
2023-04-21T22:14:56.699Z,9.93
2023-04-21T22:19:00.580Z,9.80
2023-04-21T22:22:13.677Z,9.91
2023-04-21T22:29:11.328Z,9.90
2023-04-21T22:32:15.204Z,9.86
2023-04-21T22:34:53.583Z,9.83
2023-04-21T22:37:43.736Z,9.82
2023-04-21T22:40:44.686Z,9.82
2023-04-21T22:43:31.290Z,9.76
2023-04-21T22:50:18.274Z,9.72
2023-04-21T22:53:39.247Z,9.66
2023-04-21T22:56:44.106Z,9.63
2023-04-21T22:59:33.472Z,9.60
2023-04-21T23:02:05.531Z,9.58
2023-04-21T23:04:39.909Z,9.58
2023-04-21T23:08:16.638Z,9.59
2023-04-21T23:10:50.872Z,9.59
2023-04-21T23:14:11.292Z,9.57
2023-04-21T23:16:57.486Z,9.58
2023-04-21T23:20:29.658Z,9.57
2023-04-21T23:23:07.822Z,9.57
2023-04-21T23:25:43.158Z,9.56
2023-04-21T23:29:28.135Z,9.56
2023-04-21T23:32:07.811Z,9.58
2023-04-21T23:35:00.581Z,9.56
2023-04-21T23:37:31.207Z,9.57
2023-04-21T23:40:15.818Z,9.59
2023-04-21T23:43:37.556Z,9.60
2023-04-21T23:47:12.693Z,9.65
2023-04-21T23:49:57.329Z,9.66
2023-04-21T23:53:22.680Z,9.69
2023-04-21T23:56:19.032Z,9.70
2023-04-21T23:59:54.826Z,9.68
